sensor_id;sensor_type;location;lat;lon;timestamp;P1;durP1;ratioP1;P2;durP2;ratioP2
609;SDS011;292;48.800;9.216;2024-02-14T00:47:37;15.40;;;7.05;;
609;SDS011;292;48.800;9.216;2024-02-14T04:49:00;17.42;;;6.97;;
609;SDS011;292;48.800;9.216;2024-02-14T07:19:09;15.10;;;5.43;;
609;SDS011;292;48.800;9.216;2024-02-14T07:21:36;21.17;;;6.40;;
609;SDS011;292;48.800;9.216;2024-02-14T07:24:04;18.52;;;6.63;;
609;SDS011;292;48.800;9.216;2024-02-14T07:26:31;17.08;;;6.28;;
609;SDS011;292;48.800;9.216;2024-02-14T07:28:58;15.85;;;5.18;;
609;SDS011;292;48.800;9.216;2024-02-14T07:31:28;12.57;;;5.25;;
609;SDS011;292;48.800;9.216;2024-02-14T07:33:56;19.38;;;6.43;;
609;SDS011;292;48.800;9.216;2024-02-14T07:43:02;11.52;;;5.53;;
609;SDS011;292;48.800;9.216;2024-02-14T07:45:31;17.80;;;5.07;;
609;SDS011;292;48.800;9.216;2024-02-14T07:47:58;16.85;;;5.60;;
609;SDS011;292;48.800;9.216;2024-02-14T07:50:26;14.85;;;5.80;;
609;SDS011;292;48.800;9.216;2024-02-14T07:52:53;13.68;;;5.38;;
609;SDS011;292;48.800;9.216;2024-02-14T07:55:20;17.10;;;5.13;;
609;SDS011;292;48.800;9.216;2024-02-14T07:57:49;18.55;;;5.45;;
609;SDS011;292;48.800;9.216;2024-02-14T08:00:19;12.93;;;5.32;;
609;SDS011;292;48.800;9.216;2024-02-14T08:02:48;17.15;;;5.20;;
609;SDS011;292;48.800;9.216;2024-02-14T08:05:15;13.23;;;5.38;;
609;SDS011;292;48.800;9.216;2024-02-14T08:07:44;10.75;;;4.80;;
609;SDS011;292;48.800;9.216;2024-02-14T08:10:11;11.05;;;4.53;;
609;SDS011;292;48.800;9.216;2024-02-14T08:12:38;10.07;;;3.90;;
609;SDS011;292;48.800;9.216;2024-02-14T08:15:07;10.55;;;4.60;;
609;SDS011;292;48.800;9.216;2024-02-14T08:17:36;9.23;;;4.40;;
609;SDS011;292;48.800;9.216;2024-02-14T08:20:03;15.75;;;6.15;;
609;SDS011;292;48.800;9.216;2024-02-14T08:22:31;12.77;;;4.88;;
609;SDS011;292;48.800;9.216;2024-02-14T08:24:58;12.20;;;4.30;;
609;SDS011;292;48.800;9.216;2024-02-14T08:27:25;15.85;;;4.45;;
609;SDS011;292;48.800;9.216;2024-02-14T08:29:52;14.93;;;4.88;;
609;SDS011;292;48.800;9.216;2024-02-14T08:32:20;10.77;;;3.97;;
609;SDS011;292;48.800;9.216;2024-02-14T08:34:49;15.82;;;4.47;;
609;SDS011;292;48.800;9.216;2024-02-14T08:37:16;15.23;;;3.78;;
609;SDS011;292;48.800;9.216;2024-02-14T08:39:43;11.38;;;4.30;;
609;SDS011;292;48.800;9.216;2024-02-14T08:42:10;14.05;;;4.25;;
609;SDS011;292;48.800;9.216;2024-02-14T08:44:37;11.07;;;4.10;;
609;SDS011;292;48.800;9.216;2024-02-14T08:47:04;11.90;;;3.90;;
609;SDS011;292;48.800;9.216;2024-02-14T08:49:31;13.65;;;4.45;;
609;SDS011;292;48.800;9.216;2024-02-14T08:52:00;11.35;;;3.88;;
609;SDS011;292;48.800;9.216;2024-02-14T08:54:27;9.95;;;4.15;;
609;SDS011;292;48.800;9.216;2024-02-14T08:56:54;21.35;;;3.92;;
609;SDS011;292;48.800;9.216;2024-02-14T08:59:23;8.68;;;3.63;;
609;SDS011;292;48.800;9.216;2024-02-14T09:01:50;13.05;;;3.88;;
609;SDS011;292;48.800;9.216;2024-02-14T09:04:17;14.35;;;4.15;;
609;SDS011;292;48.800;9.216;2024-02-14T09:06:44;13.95;;;4.50;;
609;SDS011;292;48.800;9.216;2024-02-14T09:09:12;12.13;;;5.35;;
609;SDS011;292;48.800;9.216;2024-02-14T09:11:40;13.68;;;4.32;;
609;SDS011;292;48.800;9.216;2024-02-14T09:14:07;9.68;;;4.05;;
609;SDS011;292;48.800;9.216;2024-02-14T09:16:35;12.75;;;4.47;;
609;SDS011;292;48.800;9.216;2024-02-14T09:19:02;11.77;;;4.60;;
609;SDS011;292;48.800;9.216;2024-02-14T09:21:31;10.80;;;4.38;;
609;SDS011;292;48.800;9.216;2024-02-14T09:23:59;18.13;;;4.20;;
609;SDS011;292;48.800;9.216;2024-02-14T09:26:28;12.07;;;4.17;;
609;SDS011;292;48.800;9.216;2024-02-14T09:28:55;8.82;;;4.30;;
609;SDS011;292;48.800;9.216;2024-02-14T09:31:22;12.05;;;4.85;;
609;SDS011;292;48.800;9.216;2024-02-14T09:33:49;18.25;;;5.88;;
609;SDS011;292;48.800;9.216;2024-02-14T09:36:15;15.55;;;4.63;;
609;SDS011;292;48.800;9.216;2024-02-14T09:38:44;16.33;;;5.00;;
609;SDS011;292;48.800;9.216;2024-02-14T09:41:14;15.07;;;5.35;;
609;SDS011;292;48.800;9.216;2024-02-14T09:43:47;15.03;;;5.43;;
609;SDS011;292;48.800;9.216;2024-02-14T09:46:14;16.67;;;4.15;;
609;SDS011;292;48.800;9.216;2024-02-14T09:48:42;11.10;;;4.63;;
609;SDS011;292;48.800;9.216;2024-02-14T09:51:10;14.53;;;4.93;;
609;SDS011;292;48.800;9.216;2024-02-14T09:53:38;22.15;;;4.70;;
609;SDS011;292;48.800;9.216;2024-02-14T09:56:08;14.85;;;5.07;;
609;SDS011;292;48.800;9.216;2024-02-14T09:58:36;9.40;;;4.00;;
609;SDS011;292;48.800;9.216;2024-02-14T10:01:05;12.50;;;4.40;;
609;SDS011;292;48.800;9.216;2024-02-14T10:03:32;12.63;;;4.10;;
609;SDS011;292;48.800;9.216;2024-02-14T10:06:00;11.30;;;3.50;;
609;SDS011;292;48.800;9.216;2024-02-14T10:08:27;6.23;;;2.83;;
609;SDS011;292;48.800;9.216;2024-02-14T10:10:56;6.50;;;2.90;;
609;SDS011;292;48.800;9.216;2024-02-14T10:13:26;7.70;;;2.80;;
609;SDS011;292;48.800;9.216;2024-02-14T10:15:53;10.20;;;2.70;;
609;SDS011;292;48.800;9.216;2024-02-14T10:18:22;5.70;;;2.20;;
609;SDS011;292;48.800;9.216;2024-02-14T10:20:53;8.07;;;2.27;;
609;SDS011;292;48.800;9.216;2024-02-14T10:23:21;6.77;;;2.20;;
609;SDS011;292;48.800;9.216;2024-02-14T10:25:48;8.50;;;2.03;;
609;SDS011;292;48.800;9.216;2024-02-14T10:28:17;2.97;;;2.10;;
609;SDS011;292;48.800;9.216;2024-02-14T10:30:45;3.40;;;1.33;;
609;SDS011;292;48.800;9.216;2024-02-14T10:33:14;5.90;;;1.30;;
609;SDS011;292;48.800;9.216;2024-02-14T10:35:43;2.20;;;1.00;;
609;SDS011;292;48.800;9.216;2024-02-14T10:38:11;2.20;;;1.13;;
609;SDS011;292;48.800;9.216;2024-02-14T10:40:38;5.80;;;1.27;;
609;SDS011;292;48.800;9.216;2024-02-14T10:43:07;4.97;;;1.20;;
609;SDS011;292;48.800;9.216;2024-02-14T10:45:35;2.90;;;1.40;;
609;SDS011;292;48.800;9.216;2024-02-14T10:48:03;5.33;;;1.37;;
609;SDS011;292;48.800;9.216;2024-02-14T10:50:33;2.77;;;1.30;;
609;SDS011;292;48.800;9.216;2024-02-14T10:53:04;4.97;;;1.27;;
609;SDS011;292;48.800;9.216;2024-02-14T10:55:33;2.20;;;1.10;;
609;SDS011;292;48.800;9.216;2024-02-14T10:58:01;1.33;;;0.97;;
609;SDS011;292;48.800;9.216;2024-02-14T11:00:28;3.40;;;1.13;;
609;SDS011;292;48.800;9.216;2024-02-14T11:02:57;7.60;;;1.50;;
609;SDS011;292;48.800;9.216;2024-02-14T11:05:25;3.93;;;1.30;;
609;SDS011;292;48.800;9.216;2024-02-14T11:07:52;3.00;;;1.00;;
609;SDS011;292;48.800;9.216;2024-02-14T11:10:22;3.07;;;1.20;;
609;SDS011;292;48.800;9.216;2024-02-14T11:12:50;4.53;;;1.23;;
609;SDS011;292;48.800;9.216;2024-02-14T11:15:17;2.20;;;1.10;;
609;SDS011;292;48.800;9.216;2024-02-14T11:17:45;1.83;;;1.00;;
609;SDS011;292;48.800;9.216;2024-02-14T11:20:17;2.90;;;1.30;;
609;SDS011;292;48.800;9.216;2024-02-14T11:22:54;2.93;;;1.23;;
609;SDS011;292;48.800;9.216;2024-02-14T11:25:25;11.50;;;1.73;;
609;SDS011;292;48.800;9.216;2024-02-14T11:27:56;3.93;;;1.37;;
609;SDS011;292;48.800;9.216;2024-02-14T11:30:33;3.73;;;1.07;;
609;SDS011;292;48.800;9.216;2024-02-14T11:33:16;2.00;;;1.03;;
609;SDS011;292;48.800;9.216;2024-02-14T11:35:45;3.90;;;1.20;;
609;SDS011;292;48.800;9.216;2024-02-14T11:38:15;5.50;;;1.20;;
609;SDS011;292;48.800;9.216;2024-02-14T11:40:49;5.67;;;1.00;;
609;SDS011;292;48.800;9.216;2024-02-14T11:43:17;3.40;;;1.10;;
609;SDS011;292;48.800;9.216;2024-02-14T11:45:45;2.60;;;1.17;;
609;SDS011;292;48.800;9.216;2024-02-14T11:48:15;6.73;;;1.27;;
609;SDS011;292;48.800;9.216;2024-02-14T11:50:43;2.33;;;1.00;;
609;SDS011;292;48.800;9.216;2024-02-14T11:53:22;2.10;;;0.80;;
609;SDS011;292;48.800;9.216;2024-02-14T11:55:52;8.20;;;0.80;;
609;SDS011;292;48.800;9.216;2024-02-14T11:58:20;3.40;;;1.30;;
609;SDS011;292;48.800;9.216;2024-02-14T12:00:47;7.97;;;1.60;;
609;SDS011;292;48.800;9.216;2024-02-14T12:03:15;1.30;;;0.90;;
609;SDS011;292;48.800;9.216;2024-02-14T12:05:45;2.73;;;0.90;;
609;SDS011;292;48.800;9.216;2024-02-14T12:08:13;4.13;;;0.90;;
609;SDS011;292;48.800;9.216;2024-02-14T12:10:42;1.93;;;1.13;;
609;SDS011;292;48.800;9.216;2024-02-14T12:13:14;1.53;;;0.80;;
609;SDS011;292;48.800;9.216;2024-02-14T12:15:44;1.00;;;0.83;;
609;SDS011;292;48.800;9.216;2024-02-14T12:18:12;3.50;;;0.83;;
609;SDS011;292;48.800;9.216;2024-02-14T12:20:40;3.40;;;0.97;;
609;SDS011;292;48.800;9.216;2024-02-14T12:23:13;2.10;;;0.77;;
609;SDS011;292;48.800;9.216;2024-02-14T12:25:42;2.90;;;1.03;;
609;SDS011;292;48.800;9.216;2024-02-14T12:28:14;2.47;;;1.10;;
609;SDS011;292;48.800;9.216;2024-02-14T12:30:42;1.53;;;0.80;;
609;SDS011;292;48.800;9.216;2024-02-14T12:33:13;2.23;;;0.90;;
609;SDS011;292;48.800;9.216;2024-02-14T12:35:41;1.67;;;0.80;;
609;SDS011;292;48.800;9.216;2024-02-14T12:38:10;1.87;;;0.70;;
609;SDS011;292;48.800;9.216;2024-02-14T12:40:37;3.13;;;0.80;;
609;SDS011;292;48.800;9.216;2024-02-14T12:43:06;1.97;;;0.60;;
609;SDS011;292;48.800;9.216;2024-02-14T12:45:35;2.50;;;0.90;;
609;SDS011;292;48.800;9.216;2024-02-14T12:48:02;1.70;;;0.70;;
609;SDS011;292;48.800;9.216;2024-02-14T12:50:30;1.57;;;0.80;;
609;SDS011;292;48.800;9.216;2024-02-14T12:52:57;1.30;;;0.77;;
609;SDS011;292;48.800;9.216;2024-02-14T12:55:24;2.10;;;0.87;;
609;SDS011;292;48.800;9.216;2024-02-14T12:57:53;2.43;;;1.20;;
609;SDS011;292;48.800;9.216;2024-02-14T13:00:20;2.63;;;0.80;;
609;SDS011;292;48.800;9.216;2024-02-14T13:02:49;0.90;;;0.50;;
609;SDS011;292;48.800;9.216;2024-02-14T13:05:16;1.43;;;0.67;;
609;SDS011;292;48.800;9.216;2024-02-14T13:07:44;1.47;;;0.70;;
609;SDS011;292;48.800;9.216;2024-02-14T13:10:11;0.93;;;0.70;;
609;SDS011;292;48.800;9.216;2024-02-14T13:12:39;0.70;;;0.50;;
609;SDS011;292;48.800;9.216;2024-02-14T13:15:08;1.50;;;0.70;;
609;SDS011;292;48.800;9.216;2024-02-14T13:17:36;1.00;;;0.70;;
609;SDS011;292;48.800;9.216;2024-02-14T13:20:05;1.27;;;0.60;;
609;SDS011;292;48.800;9.216;2024-02-14T13:22:33;1.33;;;0.70;;
609;SDS011;292;48.800;9.216;2024-02-14T13:25:00;1.73;;;0.60;;
609;SDS011;292;48.800;9.216;2024-02-14T13:27:27;2.40;;;0.80;;
609;SDS011;292;48.800;9.216;2024-02-14T13:29:54;0.97;;;0.70;;
609;SDS011;292;48.800;9.216;2024-02-14T13:32:21;10.80;;;1.83;;
609;SDS011;292;48.800;9.216;2024-02-14T13:34:48;1.80;;;0.77;;
609;SDS011;292;48.800;9.216;2024-02-14T13:37:17;2.20;;;0.70;;
609;SDS011;292;48.800;9.216;2024-02-14T13:39:44;5.10;;;1.07;;
609;SDS011;292;48.800;9.216;2024-02-14T13:42:11;0.80;;;0.70;;
609;SDS011;292;48.800;9.216;2024-02-14T13:44:38;1.30;;;0.70;;
609;SDS011;292;48.800;9.216;2024-02-14T13:47:05;0.90;;;0.63;;
609;SDS011;292;48.800;9.216;2024-02-14T13:49:32;4.53;;;0.87;;
609;SDS011;292;48.800;9.216;2024-02-14T13:51:59;2.93;;;0.60;;
609;SDS011;292;48.800;9.216;2024-02-14T13:54:28;2.10;;;0.80;;
609;SDS011;292;48.800;9.216;2024-02-14T13:56:55;4.23;;;0.80;;
609;SDS011;292;48.800;9.216;2024-02-14T13:59:22;2.23;;;0.60;;
609;SDS011;292;48.800;9.216;2024-02-14T14:01:49;2.63;;;0.60;;
609;SDS011;292;48.800;9.216;2024-02-14T14:04:16;0.93;;;0.43;;
609;SDS011;292;48.800;9.216;2024-02-14T14:06:43;1.27;;;0.60;;
609;SDS011;292;48.800;9.216;2024-02-14T14:09:12;6.20;;;0.70;;
609;SDS011;292;48.800;9.216;2024-02-14T14:11:41;2.40;;;0.93;;
609;SDS011;292;48.800;9.216;2024-02-14T14:14:08;1.17;;;0.53;;
609;SDS011;292;48.800;9.216;2024-02-14T14:16:40;1.47;;;0.57;;
609;SDS011;292;48.800;9.216;2024-02-14T14:19:08;0.90;;;0.50;;
609;SDS011;292;48.800;9.216;2024-02-14T14:21:36;0.70;;;0.60;;
609;SDS011;292;48.800;9.216;2024-02-14T14:24:04;1.23;;;0.60;;
609;SDS011;292;48.800;9.216;2024-02-14T14:26:31;1.30;;;0.60;;
609;SDS011;292;48.800;9.216;2024-02-14T14:28:59;1.23;;;0.77;;
609;SDS011;292;48.800;9.216;2024-02-14T14:31:26;0.50;;;0.50;;
609;SDS011;292;48.800;9.216;2024-02-14T14:33:53;2.60;;;0.87;;
609;SDS011;292;48.800;9.216;2024-02-14T14:36:21;1.33;;;0.60;;
609;SDS011;292;48.800;9.216;2024-02-14T14:38:49;0.80;;;0.60;;
609;SDS011;292;48.800;9.216;2024-02-14T14:41:16;1.50;;;0.70;;
609;SDS011;292;48.800;9.216;2024-02-14T14:43:43;0.40;;;0.40;;
609;SDS011;292;48.800;9.216;2024-02-14T14:46:11;1.47;;;0.80;;
609;SDS011;292;48.800;9.216;2024-02-14T14:48:38;1.33;;;0.80;;
609;SDS011;292;48.800;9.216;2024-02-14T14:51:05;0.70;;;0.60;;
609;SDS011;292;48.800;9.216;2024-02-14T14:53:33;0.93;;;0.60;;
609;SDS011;292;48.800;9.216;2024-02-14T14:56:00;1.30;;;0.57;;
609;SDS011;292;48.800;9.216;2024-02-14T14:58:27;2.93;;;0.73;;
609;SDS011;292;48.800;9.216;2024-02-14T15:00:58;1.07;;;0.70;;
609;SDS011;292;48.800;9.216;2024-02-14T15:03:30;1.87;;;0.80;;
609;SDS011;292;48.800;9.216;2024-02-14T15:05:58;1.40;;;0.90;;
609;SDS011;292;48.800;9.216;2024-02-14T15:08:28;2.27;;;0.90;;
609;SDS011;292;48.800;9.216;2024-02-14T15:10:55;3.33;;;1.20;;
609;SDS011;292;48.800;9.216;2024-02-14T15:13:25;2.70;;;0.77;;
609;SDS011;292;48.800;9.216;2024-02-14T15:15:52;0.53;;;0.50;;
609;SDS011;292;48.800;9.216;2024-02-14T15:18:19;2.40;;;0.60;;
609;SDS011;292;48.800;9.216;2024-02-14T15:20:47;1.43;;;0.70;;
609;SDS011;292;48.800;9.216;2024-02-14T15:23:14;2.63;;;1.00;;
609;SDS011;292;48.800;9.216;2024-02-14T15:25:41;5.23;;;0.97;;
609;SDS011;292;48.800;9.216;2024-02-14T15:28:09;4.77;;;1.03;;
609;SDS011;292;48.800;9.216;2024-02-14T15:30:38;3.00;;;1.10;;
609;SDS011;292;48.800;9.216;2024-02-14T15:33:23;2.63;;;1.10;;
609;SDS011;292;48.800;9.216;2024-02-14T15:35:52;3.27;;;0.70;;
609;SDS011;292;48.800;9.216;2024-02-14T15:38:20;0.83;;;0.63;;
609;SDS011;292;48.800;9.216;2024-02-14T15:40:48;1.30;;;0.87;;
609;SDS011;292;48.800;9.216;2024-02-14T15:43:18;3.13;;;0.80;;
609;SDS011;292;48.800;9.216;2024-02-14T15:45:46;1.57;;;0.80;;
609;SDS011;292;48.800;9.216;2024-02-14T15:48:13;2.73;;;0.80;;
609;SDS011;292;48.800;9.216;2024-02-14T15:50:42;1.40;;;0.70;;
609;SDS011;292;48.800;9.216;2024-02-14T15:53:12;2.90;;;1.30;;
609;SDS011;292;48.800;9.216;2024-02-14T15:55:41;1.67;;;0.90;;
609;SDS011;292;48.800;9.216;2024-02-14T15:58:08;2.30;;;0.97;;
609;SDS011;292;48.800;9.216;2024-02-14T16:00:36;1.10;;;0.80;;
609;SDS011;292;48.800;9.216;2024-02-14T16:03:03;3.77;;;0.90;;
609;SDS011;292;48.800;9.216;2024-02-14T16:05:30;1.40;;;1.10;;
609;SDS011;292;48.800;9.216;2024-02-14T16:07:57;2.43;;;1.00;;
609;SDS011;292;48.800;9.216;2024-02-14T16:50:50;6.60;;;1.97;;
609;SDS011;292;48.800;9.216;2024-02-14T16:53:26;3.40;;;1.50;;
609;SDS011;292;48.800;9.216;2024-02-14T20:48:32;3.03;;;1.43;;
609;SDS011;292;48.800;9.216;2024-02-14T21:18:27;2.00;;;1.43;;
609;SDS011;292;48.800;9.216;2024-02-14T21:20:54;3.80;;;1.90;;
609;SDS011;292;48.800;9.216;2024-02-14T21:23:21;2.30;;;1.53;;
609;SDS011;292;48.800;9.216;2024-02-14T21:25:48;6.00;;;1.90;;
609;SDS011;292;48.800;9.216;2024-02-14T21:28:14;2.50;;;1.47;;
609;SDS011;292;48.800;9.216;2024-02-14T21:30:42;4.03;;;1.70;;
609;SDS011;292;48.800;9.216;2024-02-14T21:33:09;3.47;;;1.30;;
609;SDS011;292;48.800;9.216;2024-02-14T21:35:39;6.57;;;1.63;;
609;SDS011;292;48.800;9.216;2024-02-14T21:38:11;4.20;;;2.00;;
609;SDS011;292;48.800;9.216;2024-02-14T21:40:40;5.13;;;1.80;;
609;SDS011;292;48.800;9.216;2024-02-14T21:43:07;4.00;;;1.73;;
609;SDS011;292;48.800;9.216;2024-02-14T21:45:34;7.27;;;1.90;;
609;SDS011;292;48.800;9.216;2024-02-14T21:48:01;4.43;;;2.07;;
609;SDS011;292;48.800;9.216;2024-02-14T21:50:28;3.97;;;1.50;;
609;SDS011;292;48.800;9.216;2024-02-14T21:52:58;3.80;;;1.40;;
609;SDS011;292;48.800;9.216;2024-02-14T21:55:25;6.00;;;1.33;;
609;SDS011;292;48.800;9.216;2024-02-14T21:57:53;3.30;;;1.80;;
609;SDS011;292;48.800;9.216;2024-02-14T22:00:20;3.80;;;1.43;;
609;SDS011;292;48.800;9.216;2024-02-14T22:02:47;1.70;;;1.23;;
609;SDS011;292;48.800;9.216;2024-02-14T22:05:15;4.03;;;1.80;;
609;SDS011;292;48.800;9.216;2024-02-14T22:07:43;4.43;;;1.50;;
609;SDS011;292;48.800;9.216;2024-02-14T22:48:21;3.43;;;1.07;;
609;SDS011;292;48.800;9.216;2024-02-14T22:50:48;2.20;;;1.00;;
609;SDS011;292;48.800;9.216;2024-02-14T22:53:16;2.30;;;1.37;;
609;SDS011;292;48.800;9.216;2024-02-14T22:55:43;1.57;;;1.17;;
609;SDS011;292;48.800;9.216;2024-02-14T22:58:10;2.70;;;1.47;;
609;SDS011;292;48.800;9.216;2024-02-14T23:00:38;4.67;;;1.50;;
609;SDS011;292;48.800;9.216;2024-02-14T23:03:05;4.07;;;1.60;;
609;SDS011;292;48.800;9.216;2024-02-14T23:05:34;3.17;;;1.37;;
609;SDS011;292;48.800;9.216;2024-02-14T23:08:01;3.87;;;1.50;;
609;SDS011;292;48.800;9.216;2024-02-14T23:10:28;2.50;;;1.30;;
609;SDS011;292;48.800;9.216;2024-02-14T23:12:55;3.37;;;1.37;;
609;SDS011;292;48.800;9.216;2024-02-14T23:15:22;6.50;;;1.87;;
609;SDS011;292;48.800;9.216;2024-02-14T23:17:49;1.37;;;1.10;;
609;SDS011;292;48.800;9.216;2024-02-14T23:20:17;2.80;;;1.37;;
609;SDS011;292;48.800;9.216;2024-02-14T23:22:46;5.43;;;1.50;;
609;SDS011;292;48.800;9.216;2024-02-14T23:25:13;2.63;;;1.53;;
609;SDS011;292;48.800;9.216;2024-02-14T23:27:40;2.83;;;1.70;;
609;SDS011;292;48.800;9.216;2024-02-14T23:30:09;4.27;;;1.17;;
609;SDS011;292;48.800;9.216;2024-02-14T23:32:37;4.80;;;1.50;;
609;SDS011;292;48.800;9.216;2024-02-14T23:35:05;2.77;;;1.37;;
609;SDS011;292;48.800;9.216;2024-02-14T23:37:34;3.13;;;1.77;;
609;SDS011;292;48.800;9.216;2024-02-14T23:40:03;2.90;;;1.33;;
609;SDS011;292;48.800;9.216;2024-02-14T23:42:31;2.10;;;1.40;;
609;SDS011;292;48.800;9.216;2024-02-14T23:44:58;10.90;;;2.20;;
609;SDS011;292;48.800;9.216;2024-02-14T23:47:26;5.53;;;1.93;;
609;SDS011;292;48.800;9.216;2024-02-14T23:49:53;6.17;;;1.73;;
609;SDS011;292;48.800;9.216;2024-02-14T23:52:20;5.10;;;2.17;;
609;SDS011;292;48.800;9.216;2024-02-14T23:54:47;7.20;;;2.80;;
609;SDS011;292;48.800;9.216;2024-02-14T23:57:17;5.40;;;2.07;;
609;SDS011;292;48.800;9.216;2024-02-14T23:59:47;3.80;;;1.80;;
